AZU2202 SBJV-SBPK
Flight info
| Callsign | AZU2202 |
|---|---|
| Flight time | 1h 5m |
| Altitude | 38000 |
| Route | ARMIM UZ141 UMDEX UZ38 PALEL UM424 PTS |
| Aircraft | E190/M-SDE3GILORVW/S |
Departure
| Time | 2026-05-08 23:02 |
|---|---|
| Airport | Lauro Carneiro de Loyola Airport (SBJV) |
Arrival
| Time | 2026-05-09 00:08 |
|---|---|
| Airport | João Simões Lopes Neto International Airport (SBPK) |
| Time | Latitude | Longitude | Altitude | Speed | Heading |
|---|---|---|---|---|---|
| 2026-05-08 22:24 | -26.22347 | -48.80242 | 23 ft | 0 kts | 128° |
| 2026-05-08 22:48 | -26.22343 | -48.80246 | 23 ft | 2 kts | 128° |
| 2026-05-08 22:48 | -26.22334 | -48.80259 | 23 ft | 2 kts | 128° |
| 2026-05-08 22:48 | -26.22327 | -48.80270 | 23 ft | 1 kts | 128° |
| 2026-05-08 22:48 | -26.22321 | -48.80283 | 23 ft | 2 kts | 87° |
| 2026-05-08 22:49 | -26.22327 | -48.80299 | 23 ft | 1 kts | 47° |
| 2026-05-08 22:49 | -26.22335 | -48.80306 | 23 ft | 0 kts | 38° |
| 2026-05-08 22:53 | -26.22334 | -48.80306 | 23 ft | 0 kts | 38° |
| 2026-05-08 22:53 | -26.22331 | -48.80303 | 23 ft | 0 kts | 37° |
| 2026-05-08 22:53 | -26.22325 | -48.80298 | 23 ft | 1 kts | 36° |
| 2026-05-08 22:53 | -26.22316 | -48.80291 | 23 ft | 1 kts | 37° |
| 2026-05-08 22:54 | -26.22304 | -48.80281 | 23 ft | 2 kts | 38° |
| 2026-05-08 22:54 | -26.22290 | -48.80268 | 23 ft | 2 kts | 43° |
| 2026-05-08 22:54 | -26.22280 | -48.80249 | 23 ft | 3 kts | 73° |
| 2026-05-08 22:54 | -26.22282 | -48.80224 | 23 ft | 3 kts | 109° |
| 2026-05-08 22:55 | -26.22293 | -48.80200 | 23 ft | 4 kts | 126° |
| 2026-05-08 22:55 | -26.22310 | -48.80175 | 23 ft | 4 kts | 129° |
| 2026-05-08 22:55 | -26.22326 | -48.80143 | 23 ft | 5 kts | 110° |
| 2026-05-08 22:55 | -26.22337 | -48.80102 | 22 ft | 6 kts | 107° |
| 2026-05-08 22:56 | -26.22347 | -48.80063 | 22 ft | 2 kts | 99° |
| 2026-05-08 22:56 | -26.22346 | -48.80045 | 22 ft | 2 kts | 73° |
| 2026-05-08 22:56 | -26.22336 | -48.80029 | 22 ft | 3 kts | 50° |
| 2026-05-08 22:56 | -26.22317 | -48.80008 | 22 ft | 3 kts | 41° |
| 2026-05-08 22:57 | -26.22294 | -48.79989 | 22 ft | 4 kts | 26° |
| 2026-05-08 22:57 | -26.22274 | -48.79987 | 22 ft | 4 kts | 348° |
| 2026-05-08 22:57 | -26.22243 | -48.80020 | 22 ft | 5 kts | 308° |
| 2026-05-08 22:57 | -26.22220 | -48.80051 | 22 ft | 5 kts | 310° |
| 2026-05-08 22:58 | -26.22195 | -48.80083 | 22 ft | 5 kts | 309° |
| 2026-05-08 22:58 | -26.22173 | -48.80114 | 23 ft | 5 kts | 308° |
| 2026-05-08 22:58 | -26.22151 | -48.80145 | 23 ft | 6 kts | 309° |
| 2026-05-08 22:58 | -26.22128 | -48.80177 | 23 ft | 7 kts | 303° |
| 2026-05-08 22:59 | -26.22104 | -48.80215 | 23 ft | 7 kts | 311° |
| 2026-05-08 22:59 | -26.22073 | -48.80252 | 23 ft | 8 kts | 310° |
| 2026-05-08 22:59 | -26.22044 | -48.80296 | 23 ft | 8 kts | 299° |
| 2026-05-08 22:59 | -26.22026 | -48.80343 | 23 ft | 5 kts | 296° |
| 2026-05-08 23:00 | -26.22011 | -48.80364 | 23 ft | 2 kts | 333° |
| 2026-05-08 23:00 | -26.21999 | -48.80359 | 23 ft | 2 kts | 57° |
| 2026-05-08 23:00 | -26.22003 | -48.80344 | 23 ft | 3 kts | 130° |
| 2026-05-08 23:00 | -26.22015 | -48.80329 | 23 ft | 0 kts | 135° |
| 2026-05-08 23:01 | -26.22059 | -48.80275 | 23 ft | 38 kts | 129° |
| 2026-05-08 23:01 | -26.22378 | -48.79834 | 21 ft | 108 kts | 128° |
| 2026-05-08 23:02 | -26.23309 | -48.78458 | 484 ft | 150 kts | 122° |
| 2026-05-08 23:02 | -26.23470 | -48.78174 | 680 ft | 150 kts | 119° |
| 2026-05-08 23:02 | -26.23670 | -48.77782 | 840 ft | 157 kts | 118° |
| 2026-05-08 23:02 | -26.24293 | -48.76767 | 1276 ft | 173 kts | 127° |
| 2026-05-08 23:03 | -26.25164 | -48.75653 | 1637 ft | 207 kts | 130° |
| 2026-05-08 23:03 | -26.26338 | -48.74749 | 2055 ft | 233 kts | 166° |
| 2026-05-08 23:03 | -26.27956 | -48.74896 | 2746 ft | 242 kts | 211° |
| 2026-05-08 23:03 | -26.29160 | -48.76180 | 3446 ft | 247 kts | 250° |
| 2026-05-08 23:04 | -26.29784 | -48.77980 | 4168 ft | 260 kts | 255° |
| 2026-05-08 23:04 | -26.30495 | -48.79846 | 5133 ft | 268 kts | 254° |
| 2026-05-08 23:04 | -26.31271 | -48.81698 | 6180 ft | 269 kts | 255° |
| 2026-05-08 23:04 | -26.32077 | -48.83543 | 7233 ft | 269 kts | 253° |
| 2026-05-08 23:05 | -26.32898 | -48.85388 | 8192 ft | 269 kts | 253° |
| 2026-05-08 23:05 | -26.33739 | -48.87255 | 9069 ft | 272 kts | 253° |
| 2026-05-08 23:05 | -26.34582 | -48.89120 | 9869 ft | 276 kts | 253° |
| 2026-05-08 23:05 | -26.35452 | -48.91040 | 10696 ft | 280 kts | 252° |
| 2026-05-08 23:06 | -26.36333 | -48.92983 | 11369 ft | 288 kts | 251° |
| 2026-05-08 23:06 | -26.37243 | -48.94989 | 11986 ft | 297 kts | 251° |
| 2026-05-08 23:06 | -26.38193 | -48.97083 | 12560 ft | 307 kts | 251° |
| 2026-05-08 23:06 | -26.39153 | -48.99198 | 13228 ft | 313 kts | 251° |
| 2026-05-08 23:07 | -26.40135 | -49.01361 | 14050 ft | 313 kts | 250° |
| 2026-05-08 23:07 | -26.41103 | -49.03497 | 14793 ft | 316 kts | 251° |
| 2026-05-08 23:07 | -26.42091 | -49.05677 | 15548 ft | 317 kts | 251° |
| 2026-05-08 23:07 | -26.43074 | -49.07849 | 16288 ft | 318 kts | 250° |
| 2026-05-08 23:08 | -26.44044 | -49.09994 | 16910 ft | 322 kts | 250° |
| 2026-05-08 23:08 | -26.45053 | -49.12226 | 17566 ft | 325 kts | 250° |
| 2026-05-08 23:08 | -26.46074 | -49.14485 | 18149 ft | 330 kts | 250° |
| 2026-05-08 23:08 | -26.47111 | -49.16780 | 18706 ft | 335 kts | 250° |
| 2026-05-08 23:09 | -26.48160 | -49.19103 | 19318 ft | 339 kts | 250° |
| 2026-05-08 23:09 | -26.49209 | -49.21428 | 19946 ft | 340 kts | 249° |
| 2026-05-08 23:09 | -26.50267 | -49.23772 | 20557 ft | 342 kts | 250° |
| 2026-05-08 23:09 | -26.51344 | -49.26162 | 21136 ft | 345 kts | 249° |
| 2026-05-08 23:10 | -26.52424 | -49.28560 | 21657 ft | 349 kts | 249° |
| 2026-05-08 23:10 | -26.53521 | -49.30978 | 22196 ft | 353 kts | 247° |
| 2026-05-08 23:10 | -26.55182 | -49.33107 | 22669 ft | 375 kts | 223° |
| 2026-05-08 23:10 | -26.57627 | -49.34351 | 23172 ft | 399 kts | 199° |
| 2026-05-08 23:11 | -26.60267 | -49.34712 | 23662 ft | 407 kts | 193° |
| 2026-05-08 23:11 | -26.63104 | -49.35107 | 24118 ft | 410 kts | 195° |
| 2026-05-08 23:11 | -26.65917 | -49.35553 | 24613 ft | 413 kts | 195° |
| 2026-05-08 23:11 | -26.68789 | -49.36026 | 25037 ft | 418 kts | 195° |
| 2026-05-08 23:12 | -26.71699 | -49.36510 | 25486 ft | 422 kts | 195° |
| 2026-05-08 23:12 | -26.74607 | -49.36996 | 25940 ft | 425 kts | 195° |
| 2026-05-08 23:12 | -26.77584 | -49.37495 | 26404 ft | 428 kts | 195° |
| 2026-05-08 23:12 | -26.80535 | -49.37989 | 26873 ft | 431 kts | 195° |
| 2026-05-08 23:13 | -26.83520 | -49.38490 | 27330 ft | 434 kts | 195° |
| 2026-05-08 23:13 | -26.86526 | -49.38995 | 27695 ft | 438 kts | 195° |
| 2026-05-08 23:13 | -26.89536 | -49.39500 | 28134 ft | 441 kts | 195° |
| 2026-05-08 23:13 | -26.92584 | -49.40013 | 28575 ft | 443 kts | 195° |
| 2026-05-08 23:14 | -26.95633 | -49.40529 | 28943 ft | 447 kts | 195° |
| 2026-05-08 23:14 | -26.98733 | -49.41053 | 29392 ft | 449 kts | 196° |
| 2026-05-08 23:14 | -27.01873 | -49.41584 | 29806 ft | 452 kts | 196° |
| 2026-05-08 23:14 | -27.05010 | -49.42115 | 30142 ft | 457 kts | 196° |
| 2026-05-08 23:15 | -27.08131 | -49.42643 | 30541 ft | 460 kts | 196° |
| 2026-05-08 23:15 | -27.11328 | -49.43185 | 30905 ft | 463 kts | 195° |
| 2026-05-08 23:15 | -27.14540 | -49.43729 | 31250 ft | 467 kts | 196° |
| 2026-05-08 23:15 | -27.17764 | -49.44276 | 31633 ft | 469 kts | 196° |
| 2026-05-08 23:16 | -27.21005 | -49.44826 | 32071 ft | 469 kts | 196° |
| 2026-05-08 23:16 | -27.24193 | -49.45367 | 32496 ft | 470 kts | 196° |
| 2026-05-08 23:16 | -27.27462 | -49.45923 | 32966 ft | 470 kts | 196° |
| 2026-05-08 23:16 | -27.30678 | -49.46469 | 33408 ft | 470 kts | 197° |
| 2026-05-08 23:17 | -27.33896 | -49.47017 | 33927 ft | 468 kts | 197° |
| 2026-05-08 23:17 | -27.37129 | -49.47567 | 34415 ft | 468 kts | 197° |
| 2026-05-08 23:17 | -27.40336 | -49.48113 | 34906 ft | 467 kts | 197° |
| 2026-05-08 23:17 | -27.43571 | -49.48665 | 35248 ft | 469 kts | 197° |
| 2026-05-08 23:18 | -27.46779 | -49.49212 | 35718 ft | 469 kts | 197° |
| 2026-05-08 23:18 | -27.50044 | -49.49769 | 36043 ft | 472 kts | 197° |
| 2026-05-08 23:18 | -27.53239 | -49.50442 | 36362 ft | 466 kts | 204° |
| 2026-05-08 23:18 | -27.56276 | -49.51635 | 36723 ft | 455 kts | 214° |
| 2026-05-08 23:19 | -27.59011 | -49.53267 | 37096 ft | 442 kts | 223° |
| 2026-05-08 23:19 | -27.61576 | -49.55190 | 37461 ft | 442 kts | 224° |
| 2026-05-08 23:19 | -27.64137 | -49.57100 | 37913 ft | 439 kts | 224° |
| 2026-05-08 23:19 | -27.66651 | -49.58968 | 37971 ft | 436 kts | 224° |
| 2026-05-08 23:20 | -27.71804 | -49.62801 | 38003 ft | 452 kts | 224° |
| 2026-05-08 23:20 | -27.77190 | -49.66720 | 38033 ft | 467 kts | 223° |
| 2026-05-08 23:21 | -27.82732 | -49.70665 | 38030 ft | 471 kts | 223° |
| 2026-05-08 23:21 | -27.88278 | -49.74623 | 38040 ft | 476 kts | 223° |
| 2026-05-08 23:22 | -27.93905 | -49.78643 | 38047 ft | 478 kts | 223° |
| 2026-05-08 23:22 | -27.99466 | -49.82619 | 38057 ft | 470 kts | 224° |
| 2026-05-08 23:23 | -28.05007 | -49.86590 | 38055 ft | 472 kts | 224° |
| 2026-05-08 23:23 | -28.10547 | -49.90564 | 38078 ft | 471 kts | 224° |
| 2026-05-08 23:24 | -28.16101 | -49.94552 | 38040 ft | 472 kts | 224° |
| 2026-05-08 23:24 | -28.21691 | -49.98572 | 38041 ft | 478 kts | 224° |
| 2026-05-08 23:25 | -28.27275 | -50.02592 | 38050 ft | 476 kts | 224° |
| 2026-05-08 23:25 | -28.32808 | -50.06578 | 38038 ft | 468 kts | 224° |
| 2026-05-08 23:26 | -28.38360 | -50.10588 | 38046 ft | 473 kts | 224° |
| 2026-05-08 23:26 | -28.43911 | -50.14599 | 38046 ft | 477 kts | 224° |
| 2026-05-08 23:27 | -28.49495 | -50.18637 | 38018 ft | 474 kts | 224° |
| 2026-05-08 23:27 | -28.55015 | -50.22636 | 38022 ft | 471 kts | 224° |
| 2026-05-08 23:28 | -28.60574 | -50.26669 | 38018 ft | 472 kts | 224° |
| 2026-05-08 23:28 | -28.66092 | -50.30678 | 38014 ft | 471 kts | 224° |
| 2026-05-08 23:29 | -28.71585 | -50.34671 | 38013 ft | 467 kts | 224° |
| 2026-05-08 23:29 | -28.76811 | -50.38978 | 38015 ft | 464 kts | 229° |
| 2026-05-08 23:30 | -28.81940 | -50.43367 | 38005 ft | 458 kts | 229° |
| 2026-05-08 23:30 | -28.87048 | -50.47731 | 38009 ft | 462 kts | 229° |
| 2026-05-08 23:31 | -28.92224 | -50.52155 | 38011 ft | 463 kts | 229° |
| 2026-05-08 23:31 | -28.97319 | -50.56515 | 38015 ft | 459 kts | 229° |
| 2026-05-08 23:32 | -29.02416 | -50.60885 | 38005 ft | 461 kts | 229° |
| 2026-05-08 23:32 | -29.07556 | -50.65295 | 38008 ft | 462 kts | 230° |
| 2026-05-08 23:33 | -29.12508 | -50.69776 | 37998 ft | 445 kts | 238° |
| 2026-05-08 23:33 | -29.14532 | -50.72385 | 38022 ft | 434 kts | 244° |
| 2026-05-08 23:33 | -29.16428 | -50.75054 | 38002 ft | 435 kts | 244° |
| 2026-05-08 23:34 | -29.20212 | -50.80380 | 37994 ft | 430 kts | 244° |
| 2026-05-08 23:34 | -29.23987 | -50.85706 | 37977 ft | 432 kts | 244° |
| 2026-05-08 23:35 | -29.27765 | -50.91041 | 37978 ft | 432 kts | 244° |
| 2026-05-08 23:35 | -29.31550 | -50.96396 | 37977 ft | 435 kts | 244° |
| 2026-05-08 23:36 | -29.35339 | -51.01761 | 37979 ft | 434 kts | 244° |
| 2026-05-08 23:36 | -29.39104 | -51.07100 | 37977 ft | 433 kts | 244° |
| 2026-05-08 23:37 | -29.42965 | -51.12369 | 37969 ft | 446 kts | 237° |
| 2026-05-08 23:37 | -29.45359 | -51.14667 | 37981 ft | 458 kts | 228° |
| 2026-05-08 23:37 | -29.48174 | -51.16577 | 37977 ft | 475 kts | 219° |
| 2026-05-08 23:38 | -29.51240 | -51.18110 | 37965 ft | 492 kts | 211° |
| 2026-05-08 23:38 | -29.54578 | -51.19151 | 37982 ft | 509 kts | 202° |
| 2026-05-08 23:38 | -29.58124 | -51.19642 | 37989 ft | 521 kts | 192° |
| 2026-05-08 23:38 | -29.61773 | -51.19540 | 37976 ft | 528 kts | 182° |
| 2026-05-08 23:39 | -29.65427 | -51.18838 | 37977 ft | 541 kts | 173° |
| 2026-05-08 23:39 | -29.69123 | -51.17694 | 37965 ft | 541 kts | 174° |
| 2026-05-08 23:39 | -29.72806 | -51.17036 | 37971 ft | 530 kts | 185° |
| 2026-05-08 23:39 | -29.76440 | -51.16973 | 37972 ft | 524 kts | 192° |
| 2026-05-08 23:40 | -29.83771 | -51.16973 | 37958 ft | 525 kts | 188° |
| 2026-05-08 23:40 | -29.91141 | -51.16766 | 37961 ft | 524 kts | 188° |
| 2026-05-08 23:41 | -29.94765 | -51.16762 | 37955 ft | 512 kts | 194° |
| 2026-05-08 23:41 | -29.98209 | -51.17276 | 37964 ft | 486 kts | 204° |
| 2026-05-08 23:41 | -30.01431 | -51.18284 | 37976 ft | 472 kts | 212° |
| 2026-05-08 23:41 | -30.04385 | -51.19685 | 37988 ft | 457 kts | 221° |
| 2026-05-08 23:42 | -30.07146 | -51.21497 | 37779 ft | 456 kts | 224° |
| 2026-05-08 23:42 | -30.09884 | -51.23323 | 37272 ft | 454 kts | 224° |
| 2026-05-08 23:42 | -30.12616 | -51.25140 | 36748 ft | 451 kts | 224° |
| 2026-05-08 23:42 | -30.15343 | -51.26953 | 36260 ft | 451 kts | 224° |
| 2026-05-08 23:43 | -30.18046 | -51.28750 | 35761 ft | 449 kts | 224° |
| 2026-05-08 23:43 | -30.20736 | -51.30541 | 35274 ft | 447 kts | 224° |
| 2026-05-08 23:43 | -30.23457 | -51.32355 | 34774 ft | 454 kts | 224° |
| 2026-05-08 23:43 | -30.25999 | -51.34048 | 34306 ft | 457 kts | 224° |
| 2026-05-08 23:44 | -30.28746 | -51.35877 | 33810 ft | 457 kts | 224° |
| 2026-05-08 23:44 | -30.31457 | -51.37687 | 33308 ft | 459 kts | 224° |
| 2026-05-08 23:44 | -30.34124 | -51.39466 | 32820 ft | 458 kts | 224° |
| 2026-05-08 23:44 | -30.36870 | -51.41301 | 32317 ft | 459 kts | 224° |
| 2026-05-08 23:45 | -30.39622 | -51.43138 | 31816 ft | 458 kts | 224° |
| 2026-05-08 23:45 | -30.42401 | -51.44999 | 31302 ft | 460 kts | 224° |
| 2026-05-08 23:45 | -30.45161 | -51.46845 | 30799 ft | 458 kts | 225° |
| 2026-05-08 23:45 | -30.47905 | -51.48682 | 30291 ft | 455 kts | 225° |
| 2026-05-08 23:46 | -30.50656 | -51.50524 | 29789 ft | 452 kts | 225° |
| 2026-05-08 23:46 | -30.53345 | -51.52325 | 29301 ft | 444 kts | 225° |
| 2026-05-08 23:46 | -30.56026 | -51.54090 | 28782 ft | 447 kts | 224° |
| 2026-05-08 23:46 | -30.58717 | -51.55862 | 28261 ft | 447 kts | 225° |
| 2026-05-08 23:47 | -30.61368 | -51.57638 | 27765 ft | 439 kts | 225° |
| 2026-05-08 23:47 | -30.64012 | -51.59414 | 27287 ft | 438 kts | 225° |
| 2026-05-08 23:47 | -30.66645 | -51.61182 | 26802 ft | 433 kts | 225° |
| 2026-05-08 23:47 | -30.69247 | -51.62933 | 26326 ft | 434 kts | 224° |
| 2026-05-08 23:48 | -30.71785 | -51.64663 | 25848 ft | 420 kts | 228° |
| 2026-05-08 23:48 | -30.74113 | -51.66644 | 25407 ft | 415 kts | 232° |
| 2026-05-08 23:48 | -30.76427 | -51.68689 | 24948 ft | 415 kts | 232° |
| 2026-05-08 23:48 | -30.78676 | -51.70667 | 24502 ft | 407 kts | 232° |
| 2026-05-08 23:49 | -30.80929 | -51.72656 | 24057 ft | 409 kts | 232° |
| 2026-05-08 23:49 | -30.83159 | -51.74623 | 23611 ft | 407 kts | 232° |
| 2026-05-08 23:49 | -30.85415 | -51.76611 | 23148 ft | 407 kts | 232° |
| 2026-05-08 23:49 | -30.87649 | -51.78582 | 22719 ft | 405 kts | 231° |
| 2026-05-08 23:50 | -30.89882 | -51.80553 | 22263 ft | 398 kts | 231° |
| 2026-05-08 23:50 | -30.92056 | -51.82472 | 21829 ft | 392 kts | 231° |
| 2026-05-08 23:50 | -30.94219 | -51.84384 | 21394 ft | 386 kts | 231° |
| 2026-05-08 23:50 | -30.96346 | -51.86268 | 20978 ft | 384 kts | 231° |
| 2026-05-08 23:51 | -30.98369 | -51.88057 | 20564 ft | 380 kts | 231° |
| 2026-05-08 23:51 | -31.00463 | -51.89913 | 20154 ft | 377 kts | 230° |
| 2026-05-08 23:51 | -31.02549 | -51.91759 | 19726 ft | 369 kts | 230° |
| 2026-05-08 23:51 | -31.04573 | -51.93556 | 19322 ft | 370 kts | 230° |
| 2026-05-08 23:52 | -31.06633 | -51.95381 | 18913 ft | 364 kts | 230° |
| 2026-05-08 23:52 | -31.08624 | -51.97149 | 18512 ft | 359 kts | 230° |
| 2026-05-08 23:52 | -31.10593 | -51.98898 | 18106 ft | 358 kts | 230° |
| 2026-05-08 23:52 | -31.12561 | -52.00647 | 17693 ft | 357 kts | 230° |
| 2026-05-08 23:53 | -31.14517 | -52.02385 | 17304 ft | 353 kts | 230° |
| 2026-05-08 23:53 | -31.16473 | -52.04126 | 16918 ft | 351 kts | 230° |
| 2026-05-08 23:53 | -31.18417 | -52.05854 | 16523 ft | 350 kts | 230° |
| 2026-05-08 23:53 | -31.20349 | -52.07575 | 16141 ft | 347 kts | 230° |
| 2026-05-08 23:54 | -31.22261 | -52.09279 | 15755 ft | 347 kts | 229° |
| 2026-05-08 23:54 | -31.24178 | -52.10986 | 15369 ft | 343 kts | 230° |
| 2026-05-08 23:54 | -31.26071 | -52.12674 | 14987 ft | 339 kts | 230° |
| 2026-05-08 23:55 | -31.29793 | -52.15997 | 14241 ft | 337 kts | 230° |
| 2026-05-08 23:55 | -31.31645 | -52.17650 | 13866 ft | 333 kts | 229° |
| 2026-05-08 23:55 | -31.33490 | -52.19301 | 13500 ft | 335 kts | 229° |
| 2026-05-08 23:55 | -31.35343 | -52.20957 | 13130 ft | 332 kts | 229° |
| 2026-05-08 23:56 | -31.37149 | -52.22570 | 12757 ft | 328 kts | 229° |
| 2026-05-08 23:56 | -31.38973 | -52.24205 | 12395 ft | 329 kts | 228° |
| 2026-05-08 23:56 | -31.40761 | -52.25805 | 12041 ft | 326 kts | 228° |
| 2026-05-08 23:56 | -31.42546 | -52.27403 | 11684 ft | 319 kts | 227° |
| 2026-05-08 23:57 | -31.44295 | -52.28971 | 11322 ft | 315 kts | 227° |
| 2026-05-08 23:57 | -31.46029 | -52.30523 | 10967 ft | 307 kts | 228° |
| 2026-05-08 23:57 | -31.47696 | -52.32018 | 10633 ft | 299 kts | 227° |
| 2026-05-08 23:57 | -31.49318 | -52.33473 | 10308 ft | 288 kts | 227° |
| 2026-05-08 23:58 | -31.50888 | -52.34884 | 9986 ft | 283 kts | 227° |
| 2026-05-08 23:58 | -31.52419 | -52.36259 | 9687 ft | 276 kts | 227° |
| 2026-05-08 23:58 | -31.53948 | -52.37635 | 9386 ft | 275 kts | 227° |
| 2026-05-08 23:58 | -31.55468 | -52.39004 | 9084 ft | 274 kts | 226° |
| 2026-05-08 23:59 | -31.56978 | -52.40361 | 8782 ft | 274 kts | 226° |
| 2026-05-08 23:59 | -31.58468 | -52.41701 | 8476 ft | 270 kts | 226° |
| 2026-05-08 23:59 | -31.59952 | -52.43039 | 8177 ft | 271 kts | 225° |
| 2026-05-08 23:59 | -31.61424 | -52.44363 | 7874 ft | 262 kts | 225° |
| 2026-05-09 00:00 | -31.62868 | -52.45661 | 7580 ft | 254 kts | 225° |
| 2026-05-09 00:00 | -31.64234 | -52.46893 | 7308 ft | 246 kts | 224° |
| 2026-05-09 00:00 | -31.65573 | -52.48101 | 7044 ft | 238 kts | 224° |
| 2026-05-09 00:00 | -31.66864 | -52.49265 | 6785 ft | 231 kts | 224° |
| 2026-05-09 00:01 | -31.68126 | -52.50404 | 6531 ft | 224 kts | 224° |
| 2026-05-09 00:01 | -31.69353 | -52.51511 | 6287 ft | 218 kts | 224° |
| 2026-05-09 00:01 | -31.70536 | -52.52579 | 6053 ft | 215 kts | 224° |
| 2026-05-09 00:01 | -31.71715 | -52.53645 | 5827 ft | 215 kts | 224° |
| 2026-05-09 00:02 | -31.72892 | -52.54709 | 5594 ft | 213 kts | 224° |
| 2026-05-09 00:02 | -31.74070 | -52.55774 | 5357 ft | 212 kts | 224° |
| 2026-05-09 00:02 | -31.75235 | -52.56828 | 5125 ft | 211 kts | 224° |
| 2026-05-09 00:02 | -31.76505 | -52.57735 | 4877 ft | 220 kts | 199° |
| 2026-05-09 00:03 | -31.78049 | -52.57547 | 4653 ft | 239 kts | 159° |
| 2026-05-09 00:03 | -31.79268 | -52.56167 | 4347 ft | 253 kts | 121° |
| 2026-05-09 00:03 | -31.80068 | -52.54340 | 4049 ft | 252 kts | 120° |
| 2026-05-09 00:03 | -31.80917 | -52.52536 | 3819 ft | 249 kts | 123° |
| 2026-05-09 00:04 | -31.81774 | -52.50788 | 3566 ft | 250 kts | 119° |
| 2026-05-09 00:04 | -31.82077 | -52.48814 | 3324 ft | 248 kts | 76° |
| 2026-05-09 00:04 | -31.81356 | -52.47001 | 2994 ft | 242 kts | 47° |
| 2026-05-09 00:04 | -31.80323 | -52.45433 | 2638 ft | 242 kts | 46° |
| 2026-05-09 00:05 | -31.79312 | -52.43923 | 2355 ft | 228 kts | 46° |
| 2026-05-09 00:05 | -31.78363 | -52.42515 | 2009 ft | 210 kts | 45° |
| 2026-05-09 00:05 | -31.77497 | -52.41237 | 1731 ft | 191 kts | 45° |
| 2026-05-09 00:05 | -31.76707 | -52.40076 | 1499 ft | 172 kts | 45° |
| 2026-05-09 00:06 | -31.75990 | -52.39026 | 1284 ft | 160 kts | 45° |
| 2026-05-09 00:06 | -31.75298 | -52.38016 | 1057 ft | 155 kts | 46° |
| 2026-05-09 00:06 | -31.74663 | -52.37086 | 850 ft | 138 kts | 46° |
| 2026-05-09 00:06 | -31.74081 | -52.36235 | 625 ft | 127 kts | 47° |
| 2026-05-09 00:07 | -31.73527 | -52.35426 | 477 ft | 125 kts | 47° |
| 2026-05-09 00:07 | -31.72983 | -52.34629 | 330 ft | 126 kts | 50° |
| 2026-05-09 00:07 | -31.72439 | -52.33826 | 151 ft | 124 kts | 48° |
| 2026-05-09 00:07 | -31.71910 | -52.33057 | 64 ft | 111 kts | 49° |
| 2026-05-09 00:08 | -31.71559 | -52.32557 | 63 ft | 48 kts | 50° |
| 2026-05-09 00:08 | -31.71386 | -52.32311 | 63 ft | 39 kts | 52° |
| 2026-05-09 00:08 | -31.71287 | -52.32150 | 63 ft | 3 kts | 59° |
| 2026-05-09 00:08 | -31.71278 | -52.32156 | 63 ft | 2 kts | 258° |
| 2026-05-09 00:09 | -31.71309 | -52.32190 | 63 ft | 9 kts | 227° |
| 2026-05-09 00:09 | -31.71367 | -52.32273 | 63 ft | 16 kts | 231° |
| 2026-05-09 00:09 | -31.71465 | -52.32393 | 63 ft | 23 kts | 220° |
| 2026-05-09 00:09 | -31.71580 | -52.32572 | 63 ft | 30 kts | 232° |
| 2026-05-09 00:10 | -31.71717 | -52.32778 | 63 ft | 26 kts | 232° |
| 2026-05-09 00:10 | -31.71790 | -52.32887 | 63 ft | 12 kts | 232° |
| 2026-05-09 00:10 | -31.71808 | -52.32953 | 63 ft | 8 kts | 299° |
| 2026-05-09 00:10 | -31.71768 | -52.32997 | 63 ft | 4 kts | 321° |
| 2026-05-09 00:11 | -31.71767 | -52.32999 | 63 ft | 0 kts | 321° |
| 2026-05-09 00:11 | -31.71766 | -52.32999 | 63 ft | 0 kts | 321° |
| 2026-05-09 00:11 | -31.71763 | -52.33003 | 63 ft | 1 kts | 322° |
| 2026-05-09 00:11 | -31.71755 | -52.33010 | 63 ft | 1 kts | 322° |
| 2026-05-09 00:12 | -31.71744 | -52.33020 | 63 ft | 2 kts | 323° |
| 2026-05-09 00:12 | -31.71731 | -52.33031 | 63 ft | 2 kts | 321° |
| 2026-05-09 00:12 | -31.71717 | -52.33045 | 63 ft | 2 kts | 320° |
| 2026-05-09 00:12 | -31.71699 | -52.33060 | 63 ft | 3 kts | 334° |
| 2026-05-09 00:13 | -31.71675 | -52.33065 | 63 ft | 3 kts | 357° |
| 2026-05-09 00:13 | -31.71652 | -52.33065 | 63 ft | 3 kts | 1° |
| 2026-05-09 00:13 | -31.71628 | -52.33059 | 63 ft | 2 kts | 25° |
| 2026-05-09 00:13 | -31.71616 | -52.33050 | 64 ft | 1 kts | 39° |
| 2026-05-09 00:14 | -31.71613 | -52.33046 | 64 ft | 0 kts | 44° |
| 2026-05-09 00:14 | -31.71612 | -52.33045 | 64 ft | 0 kts | 44° |
| 2026-05-09 00:14 | -31.71611 | -52.33044 | 64 ft | 0 kts | 44° |
| 2026-05-09 00:14 | -31.71610 | -52.33043 | 64 ft | 0 kts | 44° |
| 2026-05-09 00:15 | -31.71609 | -52.33042 | 64 ft | 0 kts | 44° |
| 2026-05-09 00:15 | -31.71609 | -52.33041 | 64 ft | 0 kts | 44° |
| 2026-05-09 00:15 | -31.71608 | -52.33041 | 64 ft | 0 kts | 44° |
| 2026-05-09 00:15 | -31.71607 | -52.33040 | 64 ft | 0 kts | 44° |
| 2026-05-09 00:16 | -31.71606 | -52.33039 | 64 ft | 0 kts | 44° |
| 2026-05-09 00:16 | -31.71605 | -52.33038 | 64 ft | 0 kts | 44° |
| 2026-05-09 00:16 | -31.71605 | -52.33037 | 64 ft | 0 kts | 44° |
| 2026-05-09 00:16 | -31.71604 | -52.33036 | 64 ft | 0 kts | 43° |
| 2026-05-09 00:17 | -31.71603 | -52.33035 | 64 ft | 0 kts | 43° |
| 2026-05-09 00:17 | -31.71602 | -52.33034 | 64 ft | 0 kts | 43° |
| 2026-05-09 00:17 | -31.71601 | -52.33033 | 64 ft | 0 kts | 43° |
| 2026-05-09 00:17 | -31.71600 | -52.33032 | 64 ft | 0 kts | 43° |
| 2026-05-09 00:18 | -31.71600 | -52.33031 | 64 ft | 0 kts | 43° |
| 2026-05-09 00:18 | -31.71599 | -52.33030 | 64 ft | 0 kts | 43° |
| 2026-05-09 00:18 | -31.71598 | -52.33030 | 64 ft | 0 kts | 43° |
| 2026-05-09 00:18 | -31.71597 | -52.33028 | 64 ft | 0 kts | 43° |
| 2026-05-09 00:19 | -31.71596 | -52.33028 | 64 ft | 0 kts | 43° |
| 2026-05-09 00:19 | -31.71595 | -52.33026 | 64 ft | 0 kts | 43° |
| 2026-05-09 00:19 | -31.71594 | -52.33025 | 63 ft | 0 kts | 43° |
| 2026-05-09 00:20 | -31.71593 | -52.33024 | 63 ft | 0 kts | 43° |
| 2026-05-09 00:20 | -31.71592 | -52.33023 | 63 ft | 0 kts | 43° |
| 2026-05-09 00:20 | -31.71591 | -52.33022 | 63 ft | 0 kts | 43° |
| 2026-05-09 00:20 | -31.71590 | -52.33021 | 63 ft | 0 kts | 43° |
| 2026-05-09 00:21 | -31.71589 | -52.33020 | 63 ft | 0 kts | 43° |
| 2026-05-09 00:21 | -31.71589 | -52.33019 | 63 ft | 0 kts | 43° |
| 2026-05-09 00:21 | -31.71588 | -52.33018 | 63 ft | 0 kts | 43° |
| 2026-05-09 00:21 | -31.71587 | -52.33017 | 63 ft | 0 kts | 43° |